Terminal Aerodrome Forecast
Issued by NWS Mt. Holly, NJ

Home | Current Version | Previous Version | Text Only | Print | Product List | Glossary On
Versions: 1 2 3 4 5 6 7 8 9 10 11 12 13 14 15 16 17 18 19 20 21
000
FTUS41 KPHI 302300 RRA
TAFPHL
TAF
KPHL 302341Z 3100/0106 15006KT P6SM BKN040 BKN060
     FM310700 19005KT 6SM BR FEW009 OVC015
     FM311600 21010KT P6SM VCSH BKN035 BKN100
     FM312300 22010G18KT P6SM SHRA SCT025 BKN035
     FM010200 22007KT P6SM SCT035 BKN050=

USA.gov is the U.S. government's official web portal to all federal, state and local government web resources and services.